Elmer, New Jersey
Current Conditions -  °F | °C
As of 10:54 PM on Thursday 20 Nov 2014 (Local Time) from KMIV Reporting Station
Clear Clear  
Wind Chill: 27°   Ceiling: Unl
Heat Index: 33°   Visibility: 10mi
Dew Point: 12°   Wind: 7mph
Humidity: 42%   Direction: 310°NW
Pressure: 30.07"   Gusts: NA
Location:  39.6°N, 75.17°W
Report Text: KMIV 210354Z AUTO 31006KT 10SM CLR 01/M11 A3007 RMK AO2 SLP181 T00061111
Loading
Personal Weather Stations






























Interactive Weather Map New forecast layout! Learn more

10-Day Weather Forecast

Advertisements
Track Severe Weather on mobile